createdAt,value
2022-10-09T00:03:43.353Z,99.90
2022-10-09T00:08:44.895Z,99.90
2022-10-09T00:13:46.402Z,99.90
2022-10-09T00:18:47.943Z,99.90
2022-10-09T00:23:49.523Z,99.90
2022-10-09T00:28:51.117Z,99.90
2022-10-09T00:33:52.705Z,99.90
2022-10-09T00:38:54.260Z,99.90
2022-10-09T00:43:55.799Z,99.90
2022-10-09T00:48:57.336Z,99.90
2022-10-09T00:53:58.892Z,99.90
2022-10-09T00:59:00.444Z,99.90
2022-10-09T01:04:01.992Z,99.90
2022-10-09T01:09:03.530Z,99.90
2022-10-09T01:14:05.049Z,99.90
2022-10-09T01:19:06.577Z,99.90
2022-10-09T01:24:08.123Z,99.90
2022-10-09T01:29:09.643Z,99.90
2022-10-09T01:34:11.154Z,99.90
2022-10-09T01:39:12.699Z,99.90
2022-10-09T01:44:14.216Z,99.90
2022-10-09T01:49:15.738Z,99.90
2022-10-09T01:54:17.261Z,99.90
2022-10-09T01:59:18.771Z,99.90
2022-10-09T02:04:20.272Z,99.90
2022-10-09T02:09:21.810Z,99.90
2022-10-09T02:14:23.327Z,99.90
2022-10-09T02:19:24.844Z,99.90
2022-10-09T02:24:26.362Z,99.90
2022-10-09T02:29:27.903Z,99.90
2022-10-09T02:34:29.466Z,99.90
2022-10-09T02:39:31.009Z,99.90
2022-10-09T02:44:32.546Z,99.90
2022-10-09T02:49:34.091Z,99.90
2022-10-09T02:54:35.622Z,99.90
2022-10-09T02:59:37.174Z,99.90
2022-10-09T03:04:38.727Z,99.90
2022-10-09T03:09:40.250Z,99.90
2022-10-09T03:14:41.785Z,99.90
2022-10-09T03:19:43.321Z,99.90
2022-10-09T03:24:44.842Z,99.90
2022-10-09T03:29:46.353Z,99.90
2022-10-09T03:34:47.909Z,99.90
2022-10-09T03:39:49.426Z,99.90
2022-10-09T03:44:50.951Z,99.90
2022-10-09T03:49:52.484Z,99.90
2022-10-09T03:54:54.003Z,99.90
2022-10-09T03:59:55.561Z,99.90
2022-10-09T04:04:57.120Z,99.90
2022-10-09T04:09:58.640Z,99.90
2022-10-09T04:15:00.177Z,99.90
2022-10-09T04:20:01.721Z,99.90
2022-10-09T04:25:03.246Z,99.90
2022-10-09T04:30:04.755Z,99.90
2022-10-09T04:35:06.274Z,99.90
2022-10-09T04:40:07.800Z,99.90
2022-10-09T04:45:09.355Z,99.90
2022-10-09T04:50:10.900Z,99.90
2022-10-09T04:55:12.472Z,99.90
2022-10-09T05:00:13.993Z,99.90
2022-10-09T05:05:15.558Z,99.90
2022-10-09T05:10:17.113Z,99.90
2022-10-09T05:15:18.639Z,99.90
2022-10-09T05:20:20.197Z,99.90
2022-10-09T05:25:21.727Z,99.90
2022-10-09T05:30:23.279Z,99.90
2022-10-09T05:35:24.823Z,99.90
2022-10-09T05:40:29.252Z,99.90
2022-10-09T05:45:30.971Z,99.90
2022-10-09T05:50:32.518Z,99.90
2022-10-09T05:55:34.281Z,99.90
2022-10-09T06:00:35.811Z,99.90
2022-10-09T06:05:39.600Z,99.90
2022-10-09T06:10:41.168Z,99.90
2022-10-09T06:15:42.730Z,99.90
2022-10-09T06:20:44.257Z,99.90
2022-10-09T06:25:45.809Z,99.90
2022-10-09T06:30:47.429Z,99.90
2022-10-09T06:35:48.993Z,99.90
2022-10-09T06:40:50.538Z,99.90
2022-10-09T06:45:52.155Z,99.90
2022-10-09T06:50:53.748Z,99.90
2022-10-09T06:55:55.257Z,99.90
2022-10-09T07:00:56.822Z,99.90
2022-10-09T07:05:58.363Z,99.90
2022-10-09T07:10:59.898Z,99.90
2022-10-09T07:16:04.687Z,99.90
2022-10-09T07:21:06.612Z,99.90
2022-10-09T07:26:08.146Z,99.90
2022-10-09T07:31:09.838Z,99.90
2022-10-09T07:36:11.398Z,99.90
2022-10-09T07:41:12.927Z,99.90
2022-10-09T07:46:14.527Z,99.90
2022-10-09T07:51:16.125Z,99.90
2022-10-09T07:56:17.692Z,99.90
2022-10-09T08:01:20.551Z,99.90
2022-10-09T08:06:22.274Z,99.90
2022-10-09T08:11:23.882Z,99.90
2022-10-09T08:16:25.435Z,99.90
2022-10-09T08:21:26.964Z,99.90
2022-10-09T08:26:28.503Z,99.90
2022-10-09T08:31:30.113Z,99.90
2022-10-09T08:36:31.697Z,99.90
2022-10-09T08:41:33.230Z,99.90
2022-10-09T08:46:34.800Z,99.90
2022-10-09T08:51:36.346Z,99.90
2022-10-09T08:56:37.866Z,99.90
2022-10-09T09:01:39.449Z,99.90
2022-10-09T09:06:41.037Z,99.90
2022-10-09T09:11:42.579Z,99.90
2022-10-09T09:16:44.117Z,99.90
2022-10-09T09:21:45.636Z,99.90
2022-10-09T09:26:47.150Z,99.90
2022-10-09T09:31:48.707Z,99.90
2022-10-09T09:36:50.244Z,99.90
2022-10-09T09:41:51.790Z,99.90
2022-10-09T09:46:53.384Z,99.90
2022-10-09T09:51:54.949Z,99.90
2022-10-09T09:57:15.907Z,99.90
2022-10-09T10:02:18.173Z,99.90
2022-10-09T10:07:19.787Z,99.90
2022-10-09T10:12:21.308Z,99.90
2022-10-09T10:17:22.837Z,99.90
2022-10-09T10:22:24.360Z,99.90
2022-10-09T10:27:25.911Z,99.90
2022-10-09T10:32:27.455Z,99.90
2022-10-09T10:37:28.967Z,99.90
2022-10-09T10:42:30.500Z,99.90
2022-10-09T10:47:32.008Z,99.90
2022-10-09T10:52:33.538Z,99.90
2022-10-09T10:57:35.090Z,99.90
2022-10-09T11:02:40.967Z,99.90
2022-10-09T11:07:43.817Z,99.90
2022-10-09T11:12:48.720Z,99.90
2022-10-09T11:17:50.360Z,99.90
2022-10-09T11:22:52.125Z,99.90
2022-10-09T11:27:53.892Z,99.90
2022-10-09T11:32:55.406Z,99.90
2022-10-09T11:37:56.953Z,99.90
2022-10-09T11:42:58.747Z,99.90
2022-10-09T11:48:00.279Z,99.90
2022-10-09T11:53:01.818Z,99.80
2022-10-09T11:58:03.355Z,98.60
2022-10-09T12:03:04.884Z,99.30
2022-10-09T12:08:06.395Z,96.90
2022-10-09T12:13:07.903Z,97.60
2022-10-09T12:18:09.427Z,97.50
2022-10-09T12:23:27.652Z,96.20
2022-10-09T12:28:29.716Z,96.30
2022-10-09T12:33:31.320Z,96.40
2022-10-09T12:38:32.861Z,96.10
2022-10-09T12:43:34.381Z,95.70
2022-10-09T12:48:35.892Z,93.50
2022-10-09T12:53:37.404Z,94.00
2022-10-09T12:58:38.966Z,94.60
2022-10-09T13:03:40.490Z,95.40
2022-10-09T13:08:42.011Z,95.50
2022-10-09T13:13:43.511Z,95.90
2022-10-09T13:18:45.027Z,94.70
2022-10-09T13:23:46.562Z,95.20
2022-10-09T13:28:48.190Z,95.90
2022-10-09T13:33:49.774Z,94.90
2022-10-09T13:38:51.298Z,95.10
2022-10-09T13:43:52.811Z,94.90
2022-10-09T13:48:54.315Z,95.20
2022-10-09T13:53:55.838Z,95.70
2022-10-09T13:58:57.349Z,95.60
2022-10-09T14:03:58.874Z,95.40
2022-10-09T14:09:02.767Z,95.00
2022-10-09T14:14:04.268Z,95.00
2022-10-09T14:19:06.348Z,95.80
2022-10-09T14:24:07.872Z,95.50
2022-10-09T14:29:09.386Z,95.40
2022-10-09T14:34:10.909Z,95.30
2022-10-09T14:39:12.432Z,95.30
2022-10-09T14:44:13.932Z,95.30
2022-10-09T14:49:15.495Z,95.50
2022-10-09T14:54:17.014Z,95.90
2022-10-09T14:59:18.525Z,96.30
2022-10-09T15:04:20.152Z,96.50
2022-10-09T15:09:21.691Z,97.50
2022-10-09T15:14:23.253Z,97.00
2022-10-09T15:19:24.755Z,98.70
2022-10-09T15:24:26.309Z,99.20
2022-10-09T15:29:27.880Z,99.10
2022-10-09T15:34:29.407Z,99.10
2022-10-09T15:39:30.932Z,99.30
2022-10-09T15:44:32.481Z,99.90
2022-10-09T15:49:33.962Z,99.90
2022-10-09T15:54:35.471Z,99.90
2022-10-09T15:59:37.004Z,99.90
2022-10-09T16:04:38.538Z,99.90
2022-10-09T16:09:40.072Z,99.90
2022-10-09T16:14:41.596Z,99.90
2022-10-09T16:19:43.180Z,99.90
2022-10-09T16:24:44.709Z,99.90
2022-10-09T16:29:46.217Z,99.90
2022-10-09T16:34:47.725Z,99.90
2022-10-09T16:39:49.241Z,99.90
2022-10-09T16:44:50.766Z,99.90
2022-10-09T16:49:52.303Z,99.90
2022-10-09T16:54:57.045Z,99.90
2022-10-09T17:00:01.120Z,99.90
2022-10-09T17:05:02.667Z,99.90
2022-10-09T17:10:04.280Z,99.90
2022-10-09T17:15:05.825Z,99.90
2022-10-09T17:20:07.361Z,99.90
2022-10-09T17:25:08.851Z,99.90
2022-10-09T17:30:10.414Z,99.90
2022-10-09T17:35:11.964Z,99.90
2022-10-09T17:40:13.494Z,99.90
2022-10-09T17:45:15.037Z,99.90
2022-10-09T17:50:16.560Z,99.90
2022-10-09T17:55:18.097Z,99.90
2022-10-09T18:00:21.829Z,99.90
2022-10-09T18:05:23.597Z,99.90
2022-10-09T18:10:25.117Z,99.90
2022-10-09T18:15:26.643Z,99.90
2022-10-09T18:20:28.168Z,99.90
2022-10-09T18:25:29.706Z,99.90
2022-10-09T18:30:31.244Z,99.90
2022-10-09T18:35:32.778Z,99.90
2022-10-09T18:40:34.301Z,99.90
2022-10-09T18:45:36.894Z,99.90
2022-10-09T18:50:38.431Z,99.90
2022-10-09T18:55:39.941Z,99.90
2022-10-09T19:00:41.515Z,99.90
2022-10-09T19:05:43.067Z,99.90
2022-10-09T19:10:44.616Z,99.90
2022-10-09T19:15:46.138Z,99.90
2022-10-09T19:20:47.675Z,99.90
2022-10-09T19:25:49.209Z,99.90
2022-10-09T19:30:50.734Z,99.90
2022-10-09T19:35:52.264Z,99.90
2022-10-09T19:40:53.800Z,99.90
2022-10-09T19:45:55.330Z,99.90
2022-10-09T19:50:56.836Z,99.90
2022-10-09T19:55:58.358Z,99.90
2022-10-09T20:00:59.947Z,99.90
2022-10-09T20:06:01.515Z,99.90
2022-10-09T20:11:03.062Z,99.90
2022-10-09T20:16:04.607Z,99.90
2022-10-09T20:21:06.144Z,99.90
2022-10-09T20:26:07.659Z,99.90
2022-10-09T20:31:09.203Z,99.90
2022-10-09T20:36:10.722Z,99.90
2022-10-09T20:41:12.255Z,99.90
2022-10-09T20:46:13.766Z,99.90
2022-10-09T20:51:15.282Z,99.90
2022-10-09T20:56:16.786Z,99.90
2022-10-09T21:01:18.349Z,99.90
2022-10-09T21:06:19.879Z,99.90
2022-10-09T21:11:21.384Z,99.90
2022-10-09T21:16:22.886Z,99.90
2022-10-09T21:21:24.391Z,99.90
2022-10-09T21:26:25.930Z,99.90
2022-10-09T21:31:27.465Z,99.90
2022-10-09T21:36:28.989Z,99.90
2022-10-09T21:41:30.512Z,99.90
2022-10-09T21:46:32.020Z,99.90
2022-10-09T21:51:33.550Z,99.90
2022-10-09T21:56:35.064Z,99.90
2022-10-09T22:01:36.605Z,99.90
2022-10-09T22:06:38.184Z,99.90
2022-10-09T22:11:39.736Z,99.90
2022-10-09T22:16:41.244Z,99.90
2022-10-09T22:21:42.759Z,99.90
2022-10-09T22:26:44.265Z,99.90
2022-10-09T22:31:45.833Z,99.90
2022-10-09T22:36:47.380Z,99.90
2022-10-09T22:41:48.890Z,99.90
2022-10-09T22:46:50.415Z,99.90
2022-10-09T22:51:51.937Z,99.90
2022-10-09T22:56:53.445Z,99.90
2022-10-09T23:01:55.095Z,99.90
2022-10-09T23:06:56.661Z,99.90
2022-10-09T23:11:58.198Z,99.90
2022-10-09T23:16:59.736Z,99.90
2022-10-09T23:22:01.272Z,99.90
2022-10-09T23:27:02.804Z,99.90
2022-10-09T23:32:04.347Z,99.90
2022-10-09T23:37:05.865Z,99.90
2022-10-09T23:42:07.374Z,99.90
2022-10-09T23:47:08.879Z,99.90
2022-10-09T23:52:10.398Z,99.90
2022-10-09T23:57:11.959Z,99.90
